createdAt,value
2024-04-06T00:01:59.281Z,0
2024-04-06T00:07:02.840Z,0
2024-04-06T00:12:07.352Z,0
2024-04-06T00:17:11.868Z,0
2024-04-06T00:22:15.431Z,0
2024-04-06T00:27:19.993Z,0
2024-04-06T00:42:32.660Z,0
2024-04-06T00:47:37.151Z,0
2024-04-06T00:52:41.631Z,0
2024-04-06T00:57:45.206Z,0
2024-04-06T01:02:49.829Z,0
2024-04-06T01:07:54.260Z,0
2024-04-06T01:12:57.839Z,0
2024-04-06T01:18:02.363Z,0
2024-04-06T01:23:06.904Z,0
2024-04-06T01:28:10.428Z,0
2024-04-06T01:33:14.987Z,0
2024-04-06T01:38:18.505Z,0
2024-04-06T01:43:23.096Z,0
2024-04-06T01:48:27.630Z,0
2024-04-06T01:53:31.164Z,0
2024-04-06T01:58:35.664Z,0
2024-04-06T02:03:40.211Z,0
2024-04-06T02:08:43.784Z,0
2024-04-06T02:13:48.317Z,0
2024-04-06T02:18:52.851Z,0
2024-04-06T02:23:57.380Z,0
2024-04-06T02:29:00.905Z,0
2024-04-06T02:34:05.431Z,0
2024-04-06T02:39:09.997Z,0
2024-04-06T02:44:13.571Z,0
2024-04-06T02:49:18.090Z,0
2024-04-06T02:54:22.597Z,0
2024-04-06T02:59:26.178Z,0
2024-04-06T03:04:30.673Z,0
2024-04-06T03:09:35.214Z,0
2024-04-06T03:14:38.762Z,0
2024-04-06T03:19:43.296Z,0
2024-04-06T03:24:47.822Z,0
2024-04-06T03:29:52.372Z,0
2024-04-06T03:34:55.937Z,0
2024-04-06T03:40:00.441Z,0
2024-04-06T03:55:13.103Z,0
2024-04-06T04:00:17.613Z,0
2024-04-06T04:15:30.212Z,0
2024-04-06T04:20:33.787Z,0
2024-04-06T04:25:38.274Z,4
2024-04-06T04:30:42.829Z,8
2024-04-06T04:35:47.371Z,20
2024-04-06T04:40:50.883Z,40
2024-04-06T04:45:55.425Z,80
2024-04-06T04:56:03.553Z,268
2024-04-06T05:01:08.073Z,480
2024-04-06T05:06:12.601Z,808
2024-04-06T05:11:16.403Z,1288
2024-04-06T05:16:20.670Z,2028
2024-04-06T05:21:25.212Z,2892
2024-04-06T05:26:28.745Z,4632
2024-04-06T05:36:37.852Z,8148
2024-04-06T05:41:42.376Z,10116
2024-04-06T05:46:45.912Z,10796
2024-04-06T06:01:58.541Z,7544
2024-04-06T06:07:02.071Z,8284
2024-04-06T06:12:06.605Z,11816
2024-04-06T06:17:11.141Z,10816
2024-04-06T06:22:15.703Z,9264
2024-04-06T06:27:19.228Z,10224
2024-04-06T06:32:23.736Z,12488
2024-04-06T06:42:33.192Z,18592
2024-04-06T06:47:36.418Z,18496
2024-04-06T06:52:40.910Z,20864
2024-04-06T06:57:44.505Z,22592
2024-04-06T07:02:49.075Z,23072
2024-04-06T07:07:53.522Z,24288
2024-04-06T07:12:57.069Z,33792
2024-04-06T07:18:01.608Z,28896
2024-04-06T07:23:06.163Z,32224
2024-04-06T07:28:10.721Z,38688
2024-04-06T07:33:14.215Z,16796
2024-04-06T07:38:20.661Z,39840
2024-04-06T07:43:23.307Z,43232
2024-04-06T07:48:26.878Z,44672
2024-04-06T07:53:31.372Z,46560
2024-04-06T07:58:35.882Z,45120
2024-04-06T08:03:39.440Z,50048
2024-04-06T08:13:48.509Z,48608
2024-04-06T08:18:52.069Z,49280
2024-04-06T08:23:56.654Z,51488
2024-04-06T08:29:01.163Z,47520
2024-04-06T08:34:05.714Z,54080
2024-04-06T08:39:09.268Z,54176
2024-04-06T08:44:13.793Z,61504
2024-04-06T08:49:18.295Z,65920
2024-04-06T08:54:21.852Z,61920
2024-04-06T08:59:26.416Z,70752
2024-04-06T09:04:30.923Z,53728
2024-04-06T09:09:34.462Z,58784
2024-04-06T09:14:38.998Z,52960
2024-04-06T09:19:43.568Z,57312
2024-04-06T09:24:47.124Z,63424
2024-04-06T09:29:51.634Z,66304
2024-04-06T09:34:56.158Z,70592
2024-04-06T09:40:00.734Z,73056
2024-04-06T09:45:04.282Z,72224
2024-04-06T09:50:08.804Z,69920
2024-04-06T09:55:13.378Z,72480
2024-04-06T10:00:16.910Z,74816
2024-04-06T10:05:20.435Z,68352
2024-04-06T10:10:24.976Z,72512
2024-04-06T10:15:29.550Z,48608
2024-04-06T10:20:34.052Z,33792
2024-04-06T10:25:37.616Z,33504
2024-04-06T10:35:46.691Z,33184
2024-04-06T10:40:50.223Z,34240
2024-04-06T10:45:54.793Z,34048
2024-04-06T10:56:02.840Z,35264
2024-04-06T11:01:07.701Z,35072
2024-04-06T11:06:11.923Z,39584
2024-04-06T11:11:15.500Z,86240
2024-04-06T11:16:20.049Z,60864
2024-04-06T11:21:24.561Z,83488
2024-04-06T11:26:29.314Z,68576
2024-04-06T11:31:32.640Z,61344
2024-04-06T11:36:37.170Z,57120
2024-04-06T11:41:41.708Z,63744
2024-04-06T11:46:45.282Z,61312
2024-04-06T11:51:49.840Z,68096
2024-04-06T11:56:54.352Z,62880
2024-04-06T12:01:57.895Z,68864
2024-04-06T12:07:02.447Z,67744
2024-04-06T12:12:06.956Z,63520
2024-04-06T12:17:10.518Z,61312
2024-04-06T12:22:15.129Z,56384
2024-04-06T12:27:19.609Z,50400
2024-04-06T12:32:24.162Z,46912
2024-04-06T12:37:27.690Z,40960
2024-04-06T12:42:32.202Z,36992
2024-04-06T12:47:36.775Z,33792
2024-04-06T12:52:40.311Z,33312
2024-04-06T12:57:44.842Z,34080
2024-04-06T13:02:49.365Z,27392
2024-04-06T13:07:55.009Z,30592
2024-04-06T13:12:57.506Z,29376
2024-04-06T13:18:02.014Z,27008
2024-04-06T13:23:05.568Z,27904
2024-04-06T13:28:10.107Z,28224
2024-04-06T13:33:14.640Z,26368
2024-04-06T13:38:19.160Z,24352
2024-04-06T13:48:27.257Z,20416
2024-04-06T13:53:31.768Z,20672
2024-04-06T13:58:35.317Z,18656
2024-04-06T14:03:39.889Z,21600
2024-04-06T14:13:47.984Z,22752
2024-04-06T14:18:52.494Z,21856
2024-04-06T14:23:56.047Z,18080
2024-04-06T14:29:00.608Z,13120
2024-04-06T14:34:05.172Z,12648
2024-04-06T14:39:08.708Z,15616
2024-04-06T14:49:17.756Z,17856
2024-04-06T14:54:21.294Z,19520
2024-04-06T14:59:25.868Z,17536
2024-04-06T15:04:30.422Z,16192
2024-04-06T15:09:33.920Z,12668
2024-04-06T15:14:38.470Z,11964
2024-04-06T15:19:42.987Z,10688
2024-04-06T15:24:47.518Z,9412
2024-04-06T15:29:51.130Z,8500
2024-04-06T15:34:55.640Z,7432
2024-04-06T15:40:00.213Z,7004
2024-04-06T15:45:03.689Z,7076
2024-04-06T16:00:16.359Z,7312
2024-04-06T16:05:20.854Z,7316
2024-04-06T16:10:25.408Z,7172
2024-04-06T16:15:28.928Z,6720
2024-04-06T16:20:33.481Z,6388
2024-04-06T16:25:37.988Z,6224
2024-04-06T16:30:42.577Z,6184
2024-04-06T16:35:46.111Z,5932
2024-04-06T16:40:50.626Z,5688
2024-04-06T16:45:55.158Z,5372
2024-04-06T16:50:58.752Z,4928
2024-04-06T16:56:03.404Z,4396
2024-04-06T17:01:07.791Z,4024
2024-04-06T17:06:11.519Z,3772
2024-04-06T17:11:15.916Z,3360
2024-04-06T17:16:20.435Z,3036
2024-04-06T17:21:23.984Z,2704
2024-04-06T17:26:28.529Z,2380
2024-04-06T17:31:33.109Z,2064
2024-04-06T17:36:37.592Z,1744
2024-04-06T17:41:41.152Z,1388
2024-04-06T17:46:45.672Z,1052
2024-04-06T17:51:50.202Z,776
2024-04-06T17:56:53.740Z,556
2024-04-06T18:07:02.833Z,212
2024-04-06T18:12:06.387Z,132
2024-04-06T18:17:11.177Z,76
2024-04-06T18:22:15.431Z,40
2024-04-06T18:27:18.997Z,16
2024-04-06T18:32:23.561Z,8
2024-04-06T18:37:27.143Z,4
2024-04-06T18:42:32.140Z,0
2024-04-06T18:47:36.174Z,0
2024-04-06T18:52:39.690Z,0
2024-04-06T18:57:44.223Z,0
2024-04-06T19:02:48.751Z,0
2024-04-06T19:12:56.850Z,0
2024-04-06T19:18:03.244Z,0
2024-04-06T19:23:05.941Z,0
2024-04-06T19:28:09.502Z,0
2024-04-06T19:33:14.058Z,0
2024-04-06T19:38:18.563Z,0
2024-04-06T19:43:22.084Z,0
2024-04-06T19:48:26.660Z,0
2024-04-06T19:53:31.144Z,0
2024-04-06T19:58:34.724Z,0
2024-04-06T20:03:39.264Z,0
2024-04-06T20:08:43.770Z,0
2024-04-06T20:13:47.434Z,0
2024-04-06T20:18:51.850Z,0
2024-04-06T20:23:56.392Z,0
2024-04-06T20:29:00.928Z,0
2024-04-06T20:34:04.484Z,0
2024-04-06T20:39:09.024Z,0
2024-04-06T20:44:13.584Z,0
2024-04-06T20:49:17.101Z,0
2024-04-06T20:54:23.969Z,0
2024-04-06T20:59:26.187Z,0
2024-04-06T21:04:29.746Z,0
2024-04-06T21:09:34.254Z,0
2024-04-06T21:19:42.333Z,0
2024-04-06T21:24:46.874Z,0
2024-04-06T21:29:53.210Z,0
2024-04-06T21:34:55.931Z,0
2024-04-06T21:39:59.464Z,0
2024-04-06T21:50:08.566Z,0
2024-04-06T21:55:12.075Z,0
2024-04-06T22:00:16.637Z,0
2024-04-06T22:05:21.153Z,0
2024-04-06T22:10:24.710Z,0
2024-04-06T22:15:29.255Z,0
2024-04-06T22:20:33.788Z,0
2024-04-06T22:25:37.364Z,0
2024-04-06T22:30:41.887Z,0
2024-04-06T22:35:46.401Z,0
2024-04-06T22:40:50.933Z,0
2024-04-06T22:45:54.509Z,0
2024-04-06T22:50:58.060Z,0
2024-04-06T22:56:02.598Z,0
2024-04-06T23:01:07.120Z,0
2024-04-06T23:06:10.667Z,0
2024-04-06T23:11:15.180Z,0
2024-04-06T23:16:19.712Z,0
2024-04-06T23:21:24.282Z,0
2024-04-06T23:26:27.855Z,0
2024-04-06T23:31:32.340Z,0
2024-04-06T23:36:36.901Z,0
2024-04-06T23:41:40.422Z,0
2024-04-06T23:51:49.556Z,0
